Golva, North Dakota
Current Conditions -  °F | °C
As of 3:55 AM on Friday 28 Nov 2014 (Local Time) from K20U Reporting Station
Clear Clear  
Wind Chill: 22°   Ceiling: Unl
Heat Index: 28°   Visibility: 10mi
Dew Point: 28°   Wind: 6mph
Humidity: 100%   Direction: 140°SE
Pressure: 29.66"   Gusts: NA
Location:  46.73°N, 103.99°W
Report Text: K20U 281055Z AUTO 14005KT 10SM CLR M02/M02 A2966 RMK AO2
Loading
Personal Weather Stations






























Interactive Weather Map New forecast layout! Learn more

10-Day Weather Forecast

Advertisements
Track Severe Weather on mobile